Time;durP1;ratioP1;P1;durP2;ratioP2;P2;SDS_P1;SDS_P2;PMS_P1;PMS_P2;Temp;Humidity;BMP_temperature;BMP_pressure;BME280_temperature;BME280_humidity;BME280_pressure;Samples;Min_cycle;Max_cycle;Signal;HPM_P1;HPM_P2
2021/05/12 00:01:19;;;;;;;;;;;;;;;14.39;58.31;101057.53;1780124;80;21812;-74
2021/05/12 00:03:46;;;;;;;;;;;;;;;14.36;58.88;101061.67;1780247;80;20213;-77
2021/05/12 00:06:15;;;;;;;;;;;;;;;14.31;58.85;101054.98;1780175;80;20610;-77
2021/05/12 00:08:42;;;;;;;;;;;;;;;14.28;58.55;101048.69;1780216;80;20222;-77
2021/05/12 00:11:09;;;;;;;;;;;;;;;14.24;58.46;101054.24;1780200;80;20154;-78
2021/05/12 00:13:37;;;;;;;;;;;;;;;14.20;58.46;101047.11;1780074;80;20941;-76
2021/05/12 00:16:03;;;;;;;;;;;;;;;14.20;57.86;101041.05;1779898;80;20627;-76
2021/05/12 00:18:37;;;;;;;;;;;;;;;14.28;56.55;101034.80;1780200;80;20579;-77
2021/05/12 00:21:01;;;;;;;;;;;;;;;14.40;55.64;101031.75;1779276;80;20162;-79
2021/05/12 00:23:28;;;;;;;;;;;;;;;14.52;55.18;101029.54;1780342;80;20170;-78
2021/05/12 00:25:55;;;;;;;;;;;;;;;14.58;54.71;101028.56;1780281;80;21923;-74
2021/05/12 00:28:23;;;;;;;;;;;;;;;14.64;54.45;101024.20;1779900;80;20150;-74
2021/05/12 00:30:49;;;;;;;;;;;;;;;14.65;54.42;101017.17;1780271;80;20578;-74
2021/05/12 00:33:17;;;;;;;;;;;;;;;14.65;54.11;101016.70;1779895;80;20185;-72
2021/05/12 00:35:45;;;;;;;;;;;;;;;14.64;54.06;101016.84;1780147;80;20603;-74
2021/05/12 00:38:12;;;;;;;;;;;;;;;14.63;54.17;101023.00;1779806;80;21128;-73
2021/05/12 00:40:39;;;;;;;;;;;;;;;14.61;54.23;101017.08;1780044;80;20273;-73
2021/05/12 00:43:06;;;;;;;;;;;;;;;14.58;54.32;101014.20;1779941;80;20154;-74
2021/05/12 00:45:33;;;;;;;;;;;;;;;14.55;54.62;101012.33;1780112;80;20583;-77
2021/05/12 00:48:00;;;;;;;;;;;;;;;14.51;55.01;101013.50;1779038;80;20198;-78
2021/05/12 00:50:29;;;;;;;;;;;;;;;14.45;55.58;101020.03;1771813;81;21926;-74
2021/05/12 00:52:55;;;;;;;;;;;;;;;14.34;56.19;101025.23;1771681;81;20544;-75
2021/05/12 00:55:21;;;;;;;;;;;;;;;14.23;56.88;101015.55;1771629;81;20613;-74
2021/05/12 00:57:49;;;;;;;;;;;;;;;14.17;57.44;101014.71;1771738;81;20190;-75
2021/05/12 01:00:18;;;;;;;;;;;;;;;14.10;57.85;101014.81;1771843;81;20250;-76
2021/05/12 01:02:45;;;;;;;;;;;;;;;14.02;57.63;101015.03;1771570;81;20987;-75
2021/05/12 01:05:36;;;;;;;;;;;;;;;13.93;57.87;101005.28;1771554;81;20194;-74
2021/05/12 01:08:08;;;;;;;;;;;;;;;13.85;58.13;101005.84;1771721;81;20576;-75
2021/05/12 01:10:35;;;;;;;;;;;;;;;13.77;58.88;100999.07;1771730;81;20563;-76
2021/05/12 01:13:03;;;;;;;;;;;;;;;13.71;58.82;100988.63;1771535;81;20170;-75
2021/05/12 01:15:29;;;;;;;;;;;;;;;13.67;59.41;100992.40;1771557;81;21765;-76
2021/05/12 01:18:18;;;;;;;;;;;;;;;13.64;59.37;100985.27;1771610;81;20142;-76
2021/05/12 01:20:55;;;;;;;;;;;;;;;13.60;59.58;100982.52;1771730;81;20154;-75
2021/05/12 01:23:25;;;;;;;;;;;;;;;13.56;59.94;100975.89;1771537;81;20198;-80
2021/05/12 01:25:54;;;;;;;;;;;;;;;13.53;60.18;100974.81;1771932;81;20198;-79
2021/05/12 01:28:24;;;;;;;;;;;;;;;13.50;60.46;100983.66;1771572;81;21234;-75
2021/05/12 01:31:01;;;;;;;;;;;;;;;13.43;60.86;100985.08;1771341;81;20170;-76
2021/05/12 01:33:27;;;;;;;;;;;;;;;13.38;61.48;100988.47;1771035;80;20182;-77
2021/05/12 01:35:54;;;;;;;;;;;;;;;13.34;61.98;100987.52;1771775;81;20190;-75
2021/05/12 01:38:23;;;;;;;;;;;;;;;13.29;62.19;100980.48;1771649;81;20262;-76
2021/05/12 01:40:49;;;;;;;;;;;;;;;13.24;62.28;100973.81;1771879;81;21688;-78
2021/05/12 01:43:18;;;;;;;;;;;;;;;13.21;62.51;100971.44;1771429;81;20190;-77
2021/05/12 01:45:46;;;;;;;;;;;;;;;13.15;62.72;100978.39;1771754;81;20642;-78
2021/05/12 01:48:13;;;;;;;;;;;;;;;13.05;63.22;100975.23;1772015;80;20230;-79
2021/05/12 01:50:40;;;;;;;;;;;;;;;12.91;64.04;100974.91;1779995;80;20580;-79
2021/05/12 01:53:07;;;;;;;;;;;;;;;12.82;64.80;100971.66;1779966;80;21237;-76
2021/05/12 01:55:33;;;;;;;;;;;;;;;12.74;65.57;100979.16;1779889;80;20709;-80
2021/05/12 01:58:01;;;;;;;;;;;;;;;12.70;66.28;100986.34;1780098;80;20182;-75
2021/05/12 02:00:33;;;;;;;;;;;;;;;12.64;66.98;100975.52;1780232;80;20638;-75
2021/05/12 02:03:00;;;;;;;;;;;;;;;12.60;67.92;100970.19;1780217;80;20178;-74
2021/05/12 02:05:28;;;;;;;;;;;;;;;12.56;68.32;100966.13;1780110;80;21783;-75
2021/05/12 02:07:57;;;;;;;;;;;;;;;12.51;68.90;100966.42;1779997;80;20158;-74
2021/05/12 02:10:23;;;;;;;;;;;;;;;12.49;69.81;100964.88;1780550;80;20158;-75
2021/05/12 02:12:51;;;;;;;;;;;;;;;12.49;70.25;100962.27;1780450;80;20170;-76
2021/05/12 02:15:19;;;;;;;;;;;;;;;12.50;70.98;100969.16;1780461;80;20527;-75
2021/05/12 02:17:46;;;;;;;;;;;;;;;12.46;71.92;100958.12;1780530;80;21016;-79
2021/05/12 02:20:32;;;;;;;;;;;;;;;12.44;72.56;100956.56;1781181;80;20174;-73
2021/05/12 02:23:04;;;;;;;;;;;;;;;12.42;73.15;100954.05;1784237;80;20190;-75
2021/05/12 02:25:32;;;;;;;;;;;;;;;12.41;73.89;100952.88;1784332;80;20107;-75
2021/05/12 02:28:00;;;;;;;;;;;;;;;12.40;74.32;100956.41;1783813;80;20190;-73
2021/05/12 02:30:27;;;;;;;;;;;;;;;12.38;74.66;100953.89;1784153;80;21060;-75
2021/05/12 02:32:56;;;;;;;;;;;;;;;12.38;75.26;100954.39;1784082;80;20166;-74
2021/05/12 02:35:23;;;;;;;;;;;;;;;12.37;75.71;100952.71;1784631;80;20190;-75
2021/05/12 02:37:50;;;;;;;;;;;;;;;12.35;76.02;100958.50;1781639;80;20178;-75
2021/05/12 02:40:18;;;;;;;;;;;;;;;12.30;76.35;100954.91;1780117;80;20182;-75
2021/05/12 02:42:45;;;;;;;;;;;;;;;12.27;76.82;100951.20;1780027;80;21130;-75
2021/05/12 02:45:12;;;;;;;;;;;;;;;12.27;77.32;100946.00;1780065;80;20174;-75
2021/05/12 02:47:39;;;;;;;;;;;;;;;12.26;77.69;100949.53;1780067;80;20205;-75
2021/05/12 02:50:09;;;;;;;;;;;;;;;12.28;78.24;100949.44;1773929;80;20579;-75
2021/05/12 02:52:35;;;;;;;;;;;;;;;12.30;78.49;100957.97;1771676;81;20631;-78
2021/05/12 02:55:04;;;;;;;;;;;;;;;12.31;78.71;100959.18;1771593;81;20547;-75
2021/05/12 02:57:31;;;;;;;;;;;;;;;12.28;78.77;100964.59;1771590;81;20190;-75
2021/05/12 02:59:58;;;;;;;;;;;;;;;12.25;79.14;100966.11;1771830;81;20234;-75
2021/05/12 03:02:24;;;;;;;;;;;;;;;12.26;79.57;100962.55;1771574;81;20964;-75
2021/05/12 03:04:51;;;;;;;;;;;;;;;12.25;80.07;100963.97;1771706;81;20603;-75
2021/05/12 03:07:17;;;;;;;;;;;;;;;12.27;80.58;100969.42;1771342;81;21148;-74
2021/05/12 03:09:45;;;;;;;;;;;;;;;12.30;81.05;100968.38;1771593;81;20710;-75
2021/05/12 03:12:12;;;;;;;;;;;;;;;12.31;81.43;100968.28;1771634;81;20234;-74
2021/05/12 03:14:40;;;;;;;;;;;;;;;12.32;82.00;100958.22;1771921;81;20651;-75
2021/05/12 03:17:06;;;;;;;;;;;;;;;12.34;82.68;100957.67;1771791;81;20226;-75
2021/05/12 03:19:34;;;;;;;;;;;;;;;12.36;83.13;100953.64;1771600;81;21078;-75
2021/05/12 03:22:01;;;;;;;;;;;;;;;12.39;83.72;100952.96;1771586;81;20607;-75
2021/05/12 03:24:28;;;;;;;;;;;;;;;12.41;84.05;100956.28;1771699;81;20596;-75
2021/05/12 03:26:54;;;;;;;;;;;;;;;12.46;84.29;100949.47;1771801;81;20154;-75
2021/05/12 03:29:22;;;;;;;;;;;;;;;12.49;84.84;100942.75;1771330;81;20234;-74
2021/05/12 03:31:48;;;;;;;;;;;;;;;12.51;85.42;100941.70;1771707;81;21140;-75
2021/05/12 03:34:15;;;;;;;;;;;;;;;12.54;85.88;100945.39;1771635;81;20266;-75
2021/05/12 03:36:41;;;;;;;;;;;;;;;12.58;86.27;100942.95;1771626;81;20575;-75
2021/05/12 03:39:08;;;;;;;;;;;;;;;12.60;86.66;100944.95;1771850;81;20159;-75
2021/05/12 03:41:35;;;;;;;;;;;;;;;12.62;86.99;100950.91;1771754;81;20575;-75
2021/05/12 03:44:02;;;;;;;;;;;;;;;12.64;87.42;100946.41;1771676;81;21802;-75
2021/05/12 03:46:29;;;;;;;;;;;;;;;12.68;87.91;100950.94;1771893;81;20590;-75
2021/05/12 03:48:56;;;;;;;;;;;;;;;12.70;88.14;100948.59;1772467;80;20190;-75
2021/05/12 03:51:22;;;;;;;;;;;;;;;12.73;88.56;100957.48;1780110;80;20155;-75
2021/05/12 03:53:49;;;;;;;;;;;;;;;12.78;88.94;100961.08;1780090;80;20579;-75
2021/05/12 03:56:15;;;;;;;;;;;;;;;12.82;89.13;100969.05;1780245;80;21106;-75
2021/05/12 03:58:42;;;;;;;;;;;;;;;12.86;89.33;100966.56;1779839;80;20266;-74
2021/05/12 04:01:08;;;;;;;;;;;;;;;12.92;89.50;100965.33;1754064;80;20594;-73
2021/05/12 04:03:35;;;;;;;;;;;;;;;12.97;89.64;100972.33;1780212;80;20197;-74
2021/05/12 04:06:01;;;;;;;;;;;;;;;13.02;89.84;100972.82;1780226;80;20571;-75
2021/05/12 04:08:28;;;;;;;;;;;;;;;13.06;90.11;100968.60;1780174;80;21082;-75
2021/05/12 04:10:54;;;;;;;;;;;;;;;13.11;90.33;100973.53;1780088;80;20571;-76
2021/05/12 04:13:21;;;;;;;;;;;;;;;13.14;90.55;100961.12;1780004;80;20301;-75
2021/05/12 04:15:48;;;;;;;;;;;;;;;13.19;90.71;100960.30;1780071;80;20233;-74
2021/05/12 04:18:16;;;;;;;;;;;;;;;13.23;90.82;100957.84;1780046;80;20181;-75
2021/05/12 04:20:43;;;;;;;;;;;;;;;13.27;90.96;100964.97;1780143;80;21856;-75
2021/05/12 04:23:10;;;;;;;;;;;;;;;13.30;91.31;100958.23;1780110;80;20158;-74
2021/05/12 04:25:37;;;;;;;;;;;;;;;13.34;91.70;100958.34;1779954;80;20242;-75
2021/05/12 04:28:04;;;;;;;;;;;;;;;13.35;92.09;100958.72;1780029;80;20170;-74
2021/05/12 04:30:31;;;;;;;;;;;;;;;13.39;92.55;100961.47;1780200;80;20174;-74
2021/05/12 04:33:00;;;;;;;;;;;;;;;13.42;92.89;100965.63;1780185;80;21243;-73
2021/05/12 04:35:28;;;;;;;;;;;;;;;13.42;93.13;100965.16;1780094;80;20273;-74
2021/05/12 04:37:56;;;;;;;;;;;;;;;13.44;93.53;100961.95;1780153;80;20162;-73
2021/05/12 04:40:23;;;;;;;;;;;;;;;13.47;93.81;100955.20;1780080;80;20150;-75
2021/05/12 04:42:50;;;;;;;;;;;;;;;13.49;94.17;100963.77;1780307;80;20234;-79
2021/05/12 04:45:17;;;;;;;;;;;;;;;13.52;94.59;100970.06;1780732;80;21120;-77
2021/05/12 04:47:54;;;;;;;;;;;;;;;13.57;94.93;100969.70;1779978;80;20233;-73
2021/05/12 04:50:12;;;;;;;;;;;;;;;13.63;95.22;100973.16;1773896;80;20143;-76
2021/05/12 04:52:39;;;;;;;;;;;;;;;13.68;95.48;100971.06;1771823;81;20587;-73
2021/05/12 04:55:06;;;;;;;;;;;;;;;13.75;95.59;100974.39;1771859;81;20174;-74
2021/05/12 04:57:33;;;;;;;;;;;;;;;13.84;95.56;100972.06;1771602;81;21148;-74
2021/05/12 04:59:59;;;;;;;;;;;;;;;13.96;95.41;100981.11;1771493;81;20611;-73
2021/05/12 05:02:26;;;;;;;;;;;;;;;14.05;95.12;100970.44;1771585;81;20202;-75
2021/05/12 05:04:54;;;;;;;;;;;;;;;14.15;94.68;100978.78;1771744;81;20155;-74
2021/05/12 05:07:22;;;;;;;;;;;;;;;14.25;94.27;100978.91;1771544;81;20587;-76
2021/05/12 05:09:48;;;;;;;;;;;;;;;14.35;93.90;100980.38;1771638;81;21096;-75
2021/05/12 05:12:15;;;;;;;;;;;;;;;14.46;93.67;100982.98;1771713;81;20186;-76
2021/05/12 05:14:41;;;;;;;;;;;;;;;14.57;93.23;100987.75;1771644;81;20190;-72
2021/05/12 05:17:10;;;;;;;;;;;;;;;14.68;92.69;100987.73;1771643;79;20671;-75
2021/05/12 05:19:37;;;;;;;;;;;;;;;14.78;92.13;100985.23;1771653;81;20190;-75
2021/05/12 05:22:04;;;;;;;;;;;;;;;14.88;91.70;100983.56;1771923;79;21152;-76
2021/05/12 05:24:30;;;;;;;;;;;;;;;14.96;90.93;100989.50;1771464;79;20175;-75
2021/05/12 05:26:57;;;;;;;;;;;;;;;15.02;90.24;100991.62;1771898;81;20262;-74
2021/05/12 05:29:23;;;;;;;;;;;;;;;15.11;89.68;100994.34;1771719;81;20167;-70
2021/05/12 05:31:52;;;;;;;;;;;;;;;15.18;88.91;100994.69;1772218;81;20576;-78
2021/05/12 05:34:37;;;;;;;;;;;;;;;15.26;88.32;100992.27;1771581;81;22022;-72
2021/05/12 05:37:14;;;;;;;;;;;;;;;15.32;87.66;101000.94;1709451;83;20225;-75
2021/05/12 05:39:59;;;;;;;;;;;;;;;15.36;87.17;100993.20;1771795;81;20198;-73
2021/05/12 05:42:44;;;;;;;;;;;;;;;15.38;87.10;100995.20;1771792;81;20197;-73
2021/05/12 05:45:30;;;;;;;;;;;;;;;15.43;86.76;100994.84;1771765;81;20588;-73
2021/05/12 05:48:16;;;;;;;;;;;;;;;15.50;86.52;100997.36;1771731;81;21110;-72
2021/05/12 05:51:01;;;;;;;;;;;;;;;15.57;86.35;100994.61;1752455;81;20194;-75
2021/05/12 05:53:47;;;;;;;;;;;;;;;15.66;86.11;101000.39;1771644;81;20583;-75
2021/05/12 05:56:32;;;;;;;;;;;;;;;15.76;85.46;101004.72;1771564;81;20154;-80
2021/05/12 05:59:18;;;;;;;;;;;;;;;15.84;84.71;100997.09;1771545;80;20170;-72
2021/05/12 06:02:06;;;;;;;;;;;;;;;15.88;84.08;100999.81;1771306;81;21247;-73
2021/05/12 06:04:52;;;;;;;;;;;;;;;15.98;83.87;101010.35;1766104;79;20592;-73
2021/05/12 06:07:41;;;;;;;;;;;;;;;16.06;83.38;101012.31;1759145;79;20198;-75
2021/05/12 06:10:26;;;;;;;;;;;;;;;16.13;82.73;101012.99;1771817;81;20166;-72
2021/05/12 06:13:12;;;;;;;;;;;;;;;16.15;81.98;101004.99;1771633;79;20200;-77
2021/05/12 06:15:59;;;;;;;;;;;;;;;16.18;81.37;101017.83;1771790;81;21071;-73
2021/05/12 06:18:47;;;;;;;;;;;;;;;16.23;80.46;101005.20;1771555;81;20198;-73
2021/05/12 06:21:32;;;;;;;;;;;;;;;16.24;79.83;101008.98;1769290;81;20217;-72
2021/05/12 06:24:17;;;;;;;;;;;;;;;16.24;79.81;101012.91;1758167;81;20149;-74
2021/05/12 06:27:05;;;;;;;;;;;;;;;16.24;79.29;101012.91;1741040;81;20162;-73
2021/05/12 06:29:51;;;;;;;;;;;;;;;16.26;78.60;101003.16;1740860;81;21248;-75
2021/05/12 06:32:36;;;;;;;;;;;;;;;16.26;77.37;101004.46;1741019;82;20180;-74
2021/05/12 06:35:22;;;;;;;;;;;;;;;16.21;77.00;101004.51;1740869;82;20246;-74
2021/05/12 06:38:07;;;;;;;;;;;;;;;16.17;77.30;100998.70;1741077;82;20201;-76
2021/05/12 06:40:36;;;;;;;;;;;;;;;16.22;77.42;101000.91;1741222;82;20354;-80
2021/05/12 06:43:06;;;;;;;;;;;;;;;16.26;77.53;100997.08;1740765;82;21090;-74
2021/05/12 06:45:35;;;;;;;;;;;;;;;16.34;77.18;100994.62;1741021;81;20185;-74
2021/05/12 06:48:12;;;;;;;;;;;;;;;16.37;76.83;100996.98;1740908;81;20252;-72
2021/05/12 06:50:44;;;;;;;;;;;;;;;16.38;76.83;100996.03;1744066;80;20169;-75
2021/05/12 06:53:12;;;;;;;;;;;;;;;16.39;76.57;100996.40;1745375;82;20215;-74
2021/05/12 06:55:38;;;;;;;;;;;;;;;16.43;76.78;101000.42;1741152;82;21652;-73
2021/05/12 06:58:08;;;;;;;;;;;;;;;16.55;76.49;100997.27;1716951;82;20831;-78
2021/05/12 07:00:35;;;;;;;;;;;;;;;16.61;76.41;100998.88;1711715;84;20635;-73
2021/05/12 07:03:03;;;;;;;;;;;;;;;16.66;75.63;101005.02;1711347;82;20155;-75
2021/05/12 07:05:30;;;;;;;;;;;;;;;16.73;75.30;100995.19;1711383;82;20536;-75
2021/05/12 07:07:56;;;;;;;;;;;;;;;16.78;74.83;100997.43;1711751;84;21095;-73
2021/05/12 07:10:24;;;;;;;;;;;;;;;16.82;74.60;100998.33;1693626;84;20801;-75
2021/05/12 07:12:51;;;;;;;;;;;;;;;16.88;74.25;100999.09;1724457;82;20570;-74
2021/05/12 07:15:19;;;;;;;;;;;;;;;16.97;73.98;101000.59;1737292;82;20193;-75
2021/05/12 07:17:46;;;;;;;;;;;;;;;17.02;73.99;101001.84;1741335;82;20197;-77
2021/05/12 07:20:13;;;;;;;;;;;;;;;17.11;72.91;100997.09;1741375;82;20975;-76
2021/05/12 07:22:40;;;;;;;;;;;;;;;17.14;72.10;101000.75;1722661;82;20192;-77
2021/05/12 07:25:10;;;;;;;;;;;;;;;17.12;70.96;101000.08;1738784;82;20215;-76
2021/05/12 07:27:37;;;;;;;;;;;;;;;17.03;69.36;101000.88;1722481;82;20948;-74
2021/05/12 07:30:06;;;;;;;;;;;;;;;16.92;69.16;100995.26;1741215;82;20185;-76
2021/05/12 07:32:33;;;;;;;;;;;;;;;16.81;69.21;101001.09;1740178;81;21079;-75
2021/05/12 07:35:00;;;;;;;;;;;;;;;16.78;69.47;101002.16;1740285;82;20201;-78
2021/05/12 07:37:27;;;;;;;;;;;;;;;16.79;69.79;101002.52;1740835;82;20192;-76
2021/05/12 07:39:53;;;;;;;;;;;;;;;16.81;70.00;101001.09;1741254;82;20137;-74
2021/05/12 07:42:24;;;;;;;;;;;;;;;16.85;70.22;100999.37;1740696;82;20248;-76
2021/05/12 07:44:50;;;;;;;;;;;;;;;16.89;70.20;100988.97;1740840;82;21761;-75
2021/05/12 07:47:16;;;;;;;;;;;;;;;16.91;70.02;100994.09;1740759;82;20177;-71
2021/05/12 07:49:46;;;;;;;;;;;;;;;16.95;69.57;100994.16;1741169;81;20601;-75
2021/05/12 07:52:15;;;;;;;;;;;;;;;17.02;69.68;100998.38;1748286;80;20148;-76
2021/05/12 07:54:44;;;;;;;;;;;;;;;17.09;69.61;100998.20;1749228;82;20581;-75
2021/05/12 07:57:11;;;;;;;;;;;;;;;17.17;69.82;100991.78;1749052;82;21473;-76
2021/05/12 07:59:38;;;;;;;;;;;;;;;17.26;70.00;100992.30;1721670;82;20717;-74
2021/05/12 08:02:04;;;;;;;;;;;;;;;17.37;69.43;100995.63;1747856;82;20179;-73
2021/05/12 08:04:32;;;;;;;;;;;;;;;17.47;68.65;100991.70;1748252;82;20200;-77
2021/05/12 08:07:00;;;;;;;;;;;;;;;17.59;67.82;100991.10;1741961;82;20215;-73
2021/05/12 08:09:27;;;;;;;;;;;;;;;17.62;66.23;100989.51;1732560;82;21071;-77
2021/05/12 08:11:54;;;;;;;;;;;;;;;17.70;65.82;100994.44;1723973;82;20140;-73
2021/05/12 08:14:21;;;;;;;;;;;;;;;17.78;63.50;100985.84;1748536;80;20280;-78
2021/05/12 08:16:49;;;;;;;;;;;;;;;17.88;62.92;100984.04;1719137;83;20596;-79
2021/05/12 08:19:16;;;;;;;;;;;;;;;18.00;62.74;100984.23;1719434;83;20203;-75
2021/05/12 08:21:46;;;;;;;;;;;;;;;18.11;62.00;100990.64;1741635;82;20606;-75
2021/05/12 08:24:12;;;;;;;;;;;;;;;18.16;61.33;100997.60;1749420;82;20188;-76
2021/05/12 08:26:39;;;;;;;;;;;;;;;18.17;62.00;100993.19;1749750;82;20236;-74
2021/05/12 08:29:07;;;;;;;;;;;;;;;18.16;62.31;100992.83;1749614;82;20582;-78
2021/05/12 08:31:34;;;;;;;;;;;;;;;18.16;62.27;100984.47;1749272;80;20243;-77
2021/05/12 08:34:01;;;;;;;;;;;;;;;18.26;62.15;100987.08;1749646;82;21734;-75
2021/05/12 08:36:31;;;;;;;;;;;;;;;18.34;61.58;100979.32;1748952;82;20177;-75
2021/05/12 08:38:58;;;;;;;;;;;;;;;18.38;60.59;100979.35;1749442;82;20200;-75
2021/05/12 08:41:28;;;;;;;;;;;;;;;18.38;60.58;100980.19;1749232;81;20185;-75
2021/05/12 08:43:56;;;;;;;;;;;;;;;18.46;59.24;100976.85;1749571;82;20176;-73
2021/05/12 08:46:22;;;;;;;;;;;;;;;18.51;57.96;100979.89;1749502;82;20673;-75
2021/05/12 08:48:49;;;;;;;;;;;;;;;18.56;56.65;100975.05;1748858;80;20200;-76
2021/05/12 08:51:16;;;;;;;;;;;;;;;18.63;54.34;100972.19;1723160;81;20283;-76
2021/05/12 08:53:44;;;;;;;;;;;;;;;18.65;52.95;100968.09;1751119;82;20161;-79
2021/05/12 08:56:11;;;;;;;;;;;;;;;18.64;52.38;100969.88;1751125;82;20176;-76
2021/05/12 08:58:38;;;;;;;;;;;;;;;18.56;51.67;100968.97;1751221;82;21153;-74
2021/05/12 09:01:06;;;;;;;;;;;;;;;18.52;50.61;100974.98;1724029;82;20176;-76
2021/05/12 09:03:34;;;;;;;;;;;;;;;18.45;50.25;100977.33;1750905;82;20582;-75
2021/05/12 09:06:00;;;;;;;;;;;;;;;18.38;50.12;100977.56;1751736;82;20574;-75
2021/05/12 09:08:27;;;;;;;;;;;;;;;18.34;50.18;100980.16;1751219;82;20793;-73
2021/05/12 09:10:54;;;;;;;;;;;;;;;18.27;50.48;100987.42;1751430;82;21091;-75
2021/05/12 09:13:39;;;;;;;;;;;;;;;18.21;50.78;100991.94;1751094;82;20578;-73
2021/05/12 09:16:24;;;;;;;;;;;;;;;18.20;50.54;100994.21;1751122;82;20181;-78
2021/05/12 09:19:10;;;;;;;;;;;;;;;18.10;50.17;100994.71;1751476;82;20236;-73
2021/05/12 09:21:53;;;;;;;;;;;;;;;18.08;49.92;100986.99;1751314;82;20180;-74
2021/05/12 09:24:40;;;;;;;;;;;;;;;18.02;50.65;100990.66;1750830;80;21923;-73
2021/05/12 09:27:16;;;;;;;;;;;;;;;18.00;51.56;100985.53;1750501;81;20336;-72
2021/05/12 09:29:45;;;;;;;;;;;;;;;18.01;51.75;100974.08;1749988;82;20177;-73
2021/05/12 09:32:13;;;;;;;;;;;;;;;18.01;51.40;100983.75;1749463;82;20247;-75
2021/05/12 09:35:05;;;;;;;;;;;;;;;18.02;51.46;100980.16;1748859;80;20899;-80
2021/05/12 09:37:32;;;;;;;;;;;;;;;17.96;52.54;100987.61;1748733;82;21291;-73
2021/05/12 09:40:02;;;;;;;;;;;;;;;17.94;52.87;100986.94;1749366;82;20332;-77
2021/05/12 09:42:29;;;;;;;;;;;;;;;17.92;53.69;100993.30;1745524;82;20223;-75
2021/05/12 09:45:13;;;;;;;;;;;;;;;17.86;54.30;100984.20;1749391;82;20224;-75
2021/05/12 09:47:40;;;;;;;;;;;;;;;17.77;55.22;100985.01;1749587;82;20288;-73
2021/05/12 09:50:23;;;;;;;;;;;;;;;17.61;56.32;100980.83;1750344;80;22006;-73
2021/05/12 09:53:02;;;;;;;;;;;;;;;17.48;56.46;100982.03;1739867;81;20268;-79
2021/05/12 09:55:48;;;;;;;;;;;;;;;17.37;57.12;100982.50;1739180;81;20748;-74
2021/05/12 09:58:17;;;;;;;;;;;;;;;17.33;57.67;100982.42;1739246;81;20296;-75
2021/05/12 10:00:45;;;;;;;;;;;;;;;17.24;57.22;100986.34;1739232;82;20249;-75
2021/05/12 10:03:12;;;;;;;;;;;;;;;17.15;57.47;100985.86;1739494;82;21152;-76
2021/05/12 10:06:02;;;;;;;;;;;;;;;17.08;58.27;100986.88;1741076;82;20208;-74
2021/05/12 10:08:33;;;;;;;;;;;;;;;17.01;59.18;100987.57;1740937;81;20713;-75
2021/05/12 10:11:02;;;;;;;;;;;;;;;16.99;60.20;100998.66;1740887;82;20368;-74
2021/05/12 10:13:31;;;;;;;;;;;;;;;16.98;60.86;101003.54;1740192;81;20251;-76
2021/05/12 10:15:58;;;;;;;;;;;;;;;16.98;61.56;100995.67;1741180;82;21051;-73
2021/05/12 10:18:25;;;;;;;;;;;;;;;16.94;61.25;101000.38;1740999;82;20200;-74
2021/05/12 10:21:02;;;;;;;;;;;;;;;16.91;61.34;101006.70;1741049;81;20177;-78
2021/05/12 10:23:23;;;;;;;;;;;;;;;16.87;61.04;101010.57;1739768;81;20338;-73
2021/05/12 10:25:52;;;;;;;;;;;;;;;16.90;61.05;101010.30;1741016;82;20205;-77
2021/05/12 10:28:19;;;;;;;;;;;;;;;16.99;61.04;101009.14;1741169;82;21800;-76
2021/05/12 10:30:49;;;;;;;;;;;;;;;17.09;60.54;101010.83;1741165;82;20251;-74
2021/05/12 10:33:16;;;;;;;;;;;;;;;17.19;60.56;101000.36;1740841;82;20219;-77
2021/05/12 10:35:43;;;;;;;;;;;;;;;17.35;60.33;101019.03;1721949;82;20204;-79
2021/05/12 10:38:19;;;;;;;;;;;;;;;17.54;59.49;101015.12;1741010;81;20180;-74
2021/05/12 10:40:46;;;;;;;;;;;;;;;17.67;59.44;101009.15;1725391;82;21758;-77
2021/05/12 10:45:57;;;;;;;;;;;;;;;17.94;58.03;101011.88;1741141;82;20192;-77
2021/05/12 10:48:47;;;;;;;;;;;;;;;18.08;57.27;101013.73;1741010;82;20172;-77
2021/05/12 10:51:24;;;;;;;;;;;;;;;18.26;56.59;101015.49;1740950;82;20193;-72
2021/05/12 10:53:53;;;;;;;;;;;;;;;18.61;56.62;101020.59;1741115;82;21225;-72
2021/05/12 10:56:23;;;;;;;;;;;;;;;19.02;54.97;101014.39;1739969;82;20177;-72
2021/05/12 10:58:58;;;;;;;;;;;;;;;19.38;54.37;101010.50;1739002;82;20626;-74
2021/05/12 11:01:26;;;;;;;;;;;;;;;19.64;51.14;101008.82;1740983;82;20193;-74
2021/05/12 11:03:57;;;;;;;;;;;;;;;19.77;50.84;101004.00;1741280;82;20173;-80
2021/05/12 11:06:42;;;;;;;;;;;;;;;19.92;50.41;101006.41;1741105;82;21156;-72
2021/05/12 11:09:15;;;;;;;;;;;;;;;20.05;49.80;101005.53;1740958;82;20196;-77
2021/05/12 11:11:51;;;;;;;;;;;;;;;20.14;47.87;101004.25;1735661;81;20701;-72
2021/05/12 11:14:38;;;;;;;;;;;;;;;20.26;47.29;100999.92;1731936;82;20210;-74
2021/05/12 11:17:13;;;;;;;;;;;;;;;20.32;45.94;101000.65;1684079;84;20159;-77
2021/05/12 11:22:43;;;;;;;;;;;;;;;20.56;45.19;100984.95;1730446;83;20622;-72
2021/05/12 11:25:23;;;;;;;;;;;;;;;20.55;42.00;100980.65;1723521;81;20563;-79
2021/05/12 11:33:27;;;;;;;;;;;;;;;20.37;40.28;100986.98;1716832;82;21231;-73
2021/05/12 11:39:41;;;;;;;;;;;;;;;20.31;42.50;100987.13;1716458;82;20174;-77
2021/05/12 11:42:31;;;;;;;;;;;;;;;20.37;43.03;100982.55;1716501;83;20202;-76
2021/05/12 11:45:09;;;;;;;;;;;;;;;20.51;42.64;100979.82;1715200;83;20266;-77
2021/05/12 11:47:44;;;;;;;;;;;;;;;20.52;42.95;100977.02;1716684;83;21114;-78
2021/05/12 11:50:23;;;;;;;;;;;;;;;20.39;41.97;100972.66;1716213;83;20190;-75
2021/05/12 11:52:52;;;;;;;;;;;;;;;20.42;42.54;100974.98;1716326;82;20138;-73
2021/05/12 11:55:21;;;;;;;;;;;;;;;20.41;41.96;100977.79;1715939;83;20588;-71
2021/05/12 11:57:50;;;;;;;;;;;;;;;20.49;41.35;100982.59;1716560;82;20579;-75
2021/05/12 12:00:20;;;;;;;;;;;;;;;20.72;41.61;100982.05;1716685;83;21072;-75
2021/05/12 12:03:01;;;;;;;;;;;;;;;20.87;40.79;100983.08;1716249;82;20146;-76
2021/05/12 12:05:40;;;;;;;;;;;;;;;21.10;41.72;100972.30;1716432;83;20540;-74
2021/05/12 12:08:14;;;;;;;;;;;;;;;21.32;39.66;100974.33;1715937;82;20188;-76
2021/05/12 12:10:42;;;;;;;;;;;;;;;21.27;39.67;100975.81;1716545;83;20178;-73
2021/05/12 12:13:11;;;;;;;;;;;;;;;21.43;38.79;100975.34;1707845;82;23589;-77
2021/05/12 12:15:39;;;;;;;;;;;;;;;21.55;38.88;100974.52;1716420;83;20202;-79
2021/05/12 12:18:06;;;;;;;;;;;;;;;21.60;39.30;100970.38;1716532;83;20245;-76
2021/05/12 12:20:32;;;;;;;;;;;;;;;21.62;38.40;100972.87;1716485;83;20186;-76
2021/05/12 12:23:01;;;;;;;;;;;;;;;21.62;37.93;100968.91;1708082;83;20797;-76
2021/05/12 12:28:11;;;;;;;;;;;;;;;21.45;38.10;100968.56;1649717;86;20180;-74
2021/05/12 12:30:39;;;;;;;;;;;;;;;21.39;38.47;100966.58;1694558;82;20235;-76
2021/05/12 12:33:05;;;;;;;;;;;;;;;21.46;37.97;100964.95;1716674;83;20576;-78
2021/05/12 12:35:32;;;;;;;;;;;;;;;21.39;38.56;100963.45;1716390;82;20269;-72
2021/05/12 12:37:59;;;;;;;;;;;;;;;21.38;38.94;100967.06;1716554;83;21104;-73
2021/05/12 12:40:27;;;;;;;;;;;;;;;21.36;38.05;100965.59;1716248;83;20185;-75
2021/05/12 12:42:54;;;;;;;;;;;;;;;21.32;37.42;100957.66;1716448;83;20572;-75
2021/05/12 12:45:31;;;;;;;;;;;;;;;21.18;38.00;100958.31;1716578;83;20154;-76
2021/05/12 12:47:59;;;;;;;;;;;;;;;21.22;38.29;100957.00;1715325;82;20182;-70
2021/05/12 12:50:28;;;;;;;;;;;;;;;21.11;38.28;100958.13;1716426;83;21064;-80
2021/05/12 12:52:59;;;;;;;;;;;;;;;21.00;37.83;100957.07;1716154;82;20205;-75
2021/05/12 12:55:31;;;;;;;;;;;;;;;20.77;38.61;100957.35;1716546;83;20201;-77
2021/05/12 12:58:02;;;;;;;;;;;;;;;20.51;39.11;100962.20;1716513;83;20130;-73
2021/05/12 13:00:30;;;;;;;;;;;;;;;20.44;39.66;100957.70;1716304;83;20186;-76
2021/05/12 13:02:58;;;;;;;;;;;;;;;20.40;39.15;100956.35;1716669;83;21698;-75
2021/05/12 13:05:27;;;;;;;;;;;;;;;20.29;39.71;100957.47;1716206;82;20189;-72
2021/05/12 13:07:57;;;;;;;;;;;;;;;20.32;40.15;100963.75;1714770;82;20239;-76
2021/05/12 13:10:35;;;;;;;;;;;;;;;20.28;41.55;100957.61;1714074;83;20201;-76